Impacts TAF Board INFO
FOR SITUATIONAL AWARENESS. NOT TO BE USED FOR FLIGHT PLANNING PURPOSES.
IDs:

KMIA - Miami Intl, FL, US

Issued at 1501 UTC 23 May 2018
Updated at 1512 UTC 23 May 2018
Potential Impact None Slight Moderate High
Time<<24/04Z 24/05Z 24/06Z 24/07Z 24/08Z 24/09Z 24/10Z 24/11Z 24/12Z 24/13Z 24/14Z 24/15Z 24/16Z>>
Type PRVL PRVL PRVL PRVL PRVL PRVL PRVL PRVL PRVL PRVL PRVL PRVL PRVL
VIS >6 >6 >6 >6 >6 >6 >6 >6 >6 >6 >6 >6 >6
CIG -- -- -- -- -- -- -- -- -- -- 150 150 150
Cover SCT SCT SCT SCT SCT SCT SCT SCT SCT SCT BKN BKN BKN
FltCat VFR VFR VFR VFR VFR VFR VFR VFR VFR VFR VFR VFR VFR
WX -- -- -- -- -- -- -- -- -- -- -- -- --
WDir 100 100 100 100 100 100 100 100 100 100 130 130 130
WSpd 5 5 5 5 5 5 5 5 5 5 8 8 8
WGst -- -- -- -- -- -- -- -- -- -- -- -- --

Raw TAF
KMIA 231501Z 2315/2418 10009KT P6SM FEW025 SCT100 BKN250
  FM231600 12010KT P6SM VCSH SCT030 SCT050 BKN120
  FM240000 10005KT P6SM SCT020 SCT120
  FM241400 13008KT P6SM SCT025 SCT045 BKN150


METAR Board
Radar Display
Forecast Discussion

FOR SITUATIONAL AWARENESS. NOT TO BE USED FOR FLIGHT PLANNING PURPOSES.